Etusivu
METAR-TAF:

METAR-TAF

Lentoasemat :

Sherbrooke, Quebec, Kanada

Leveyspiiri: 45-24N, Pituuspiiri: 071-53W, korkeus merenpinnasta: 170 m

Tämänhetkinen sää

Tämä raportti tehtiin 58 minuuttia sitten, kello 02.00 UTC
Tuuli 8 kn idästä puuskistuen 15 kn:hen
Lämpötila 10°C
Kosteus 66%
Ilmanpaine 1005 hPa
Näkyvyys: 14.5 km
selkeää

METAR: CYSC 170200Z AUTO 10008G15KT 9SM CLR 10/04 A2969 RMK SLP059

Aika: 22:58 (02:58 UTC)

Sääennuste

Tämä raportti tehtiin 3 tuntia ja 20 minuuttia sitten, kello 23.38 UTC
Ennuste voimassa 17. päivästä klo 00 UTC - 17. päivään klo 03 UTC
Tuuli 10 kn idästä/kaakosta puuskistuen 20 kn:hen
Näkyvyys: 10 km
Hajanaisia pilviä 12000 ft:n korkeudessa
Hajonneita pilviä 16000 ft:n korkeudessa

TAF: CYSC 162338Z 1700/1703 11010G20KT P6SM SCT120 BKN160 RMK FCST BASED ON AUTO OBS. NXT FCST WILL BE ISSUED AT 171045Z

Säähavainnot ja -ennusteet yli 4000 lentoasemalta (METAR- ja TAF-raportit).

Käytössä olevat sääasemat on merkitty karttaan keltaisilla ja punaisilla pisteillä.

Aseta hiiri pisteen päälle nähdäksesi sääaseman nimen.

Klikkaa sitten nähdäksesi säähavainnot ja -ennusteet.

Kartan vaihtaminen: klikkaa mustalla rastilla varustettuja vihreitä pisteitä, niin voit zoomata sisään; viivalla varustettua vihreää pistettä, niin voit zoomata ulos tai vihreitä nuolia, niin pääset viereisille kartoille.


METAR-TAF: